createdAt,value
2019-03-08T00:01:10.354Z,7.76
2019-03-08T00:03:43.730Z,8.22
2019-03-08T00:06:18.362Z,6.72
2019-03-08T00:08:51.875Z,6.03
2019-03-08T00:11:27.393Z,5.68
2019-03-08T00:14:02.042Z,5.72
2019-03-08T00:16:36.774Z,6.04
2019-03-08T00:19:11.929Z,5.89
2019-03-08T00:21:45.147Z,5.98
2019-03-08T00:24:18.558Z,5.84
2019-03-08T00:26:51.898Z,5.98
2019-03-08T00:29:26.099Z,6.17
2019-03-08T00:31:59.422Z,5.66
2019-03-08T00:34:37.511Z,5.71
2019-03-08T00:37:11.682Z,5.98
2019-03-08T00:39:45.303Z,6.36
2019-03-08T00:42:18.728Z,6.32
2019-03-08T00:44:55.606Z,6.06
2019-03-08T00:47:28.995Z,6.22
2019-03-08T00:50:02.291Z,6.78
2019-03-08T00:52:35.589Z,7.43
2019-03-08T00:55:11.671Z,7.00
2019-03-08T00:57:44.991Z,7.16
2019-03-08T01:00:27.481Z,7.84
2019-03-08T01:03:00.939Z,7.45
2019-03-08T01:05:34.391Z,7.45
2019-03-08T01:08:09.391Z,6.98
2019-03-08T01:10:42.584Z,7.07
2019-03-08T01:13:15.814Z,7.61
2019-03-08T01:15:49.341Z,8.84
2019-03-08T01:18:22.706Z,10.94
2019-03-08T01:20:56.383Z,10.83
2019-03-08T01:23:29.741Z,8.81
2019-03-08T01:26:05.077Z,9.14
2019-03-08T01:28:38.493Z,10.54
2019-03-08T01:31:11.777Z,10.08
2019-03-08T01:33:45.167Z,10.09
2019-03-08T01:36:18.620Z,9.67
2019-03-08T01:38:52.043Z,9.75
2019-03-08T01:41:26.529Z,9.47
2019-03-08T01:43:59.950Z,9.65
2019-03-08T01:46:33.397Z,9.98
2019-03-08T01:49:08.309Z,9.39
2019-03-08T01:51:42.012Z,9.35
2019-03-08T01:54:15.246Z,9.94
2019-03-08T01:56:48.544Z,9.74
2019-03-08T01:59:21.803Z,9.83
2019-03-08T02:01:55.419Z,9.71
2019-03-08T02:04:28.771Z,9.59
2019-03-08T02:07:02.137Z,9.85
2019-03-08T02:09:38.065Z,9.81
2019-03-08T02:12:11.670Z,10.00
2019-03-08T02:14:45.075Z,10.18
2019-03-08T02:17:20.850Z,10.38
2019-03-08T02:19:53.217Z,10.44
2019-03-08T02:22:26.955Z,10.65
2019-03-08T02:25:00.372Z,11.47
2019-03-08T02:27:39.072Z,12.41
2019-03-08T02:30:16.887Z,12.48
2019-03-08T02:32:50.550Z,13.00
2019-03-08T02:35:24.302Z,12.47
2019-03-08T02:37:57.719Z,12.27
2019-03-08T02:40:38.285Z,12.17
2019-03-08T02:43:17.154Z,12.41
2019-03-08T02:45:51.977Z,12.66
2019-03-08T02:48:25.273Z,11.97
2019-03-08T02:51:00.169Z,11.71
2019-03-08T02:53:33.622Z,12.21
2019-03-08T02:56:09.350Z,12.03
2019-03-08T02:58:43.089Z,12.28
2019-03-08T03:01:16.510Z,12.21
2019-03-08T03:03:50.470Z,12.05
2019-03-08T03:06:23.774Z,11.79
2019-03-08T03:08:58.090Z,12.14
2019-03-08T03:11:32.009Z,12.12
2019-03-08T03:14:12.425Z,12.12
2019-03-08T03:16:45.800Z,12.56
2019-03-08T03:19:23.064Z,12.88
2019-03-08T03:22:02.882Z,12.55
2019-03-08T03:24:41.967Z,12.41
2019-03-08T03:27:09.022Z,12.84
2019-03-08T03:29:42.353Z,12.79
2019-03-08T03:32:15.626Z,12.91
2019-03-08T03:34:48.898Z,13.35
2019-03-08T03:37:23.210Z,13.46
2019-03-08T03:39:58.513Z,13.03
2019-03-08T03:42:33.810Z,13.11
2019-03-08T03:45:09.404Z,13.03
2019-03-08T03:47:42.810Z,13.37
2019-03-08T03:50:18.338Z,13.09
2019-03-08T03:52:53.445Z,13.43
2019-03-08T03:55:28.174Z,13.30
2019-03-08T03:58:01.799Z,13.03
2019-03-08T04:00:35.103Z,13.62
2019-03-08T04:03:10.182Z,13.28
2019-03-08T04:05:43.446Z,13.39
2019-03-08T04:08:16.766Z,13.57
2019-03-08T04:10:51.781Z,14.00
2019-03-08T04:13:25.229Z,14.07
2019-03-08T04:15:59.976Z,13.97
2019-03-08T04:18:33.401Z,13.81
2019-03-08T04:21:06.573Z,13.92
2019-03-08T04:23:39.912Z,13.90
2019-03-08T04:26:13.334Z,13.96
2019-03-08T04:28:46.622Z,13.82
2019-03-08T04:31:19.875Z,13.82
2019-03-08T04:33:53.516Z,13.87
2019-03-08T04:36:30.356Z,14.00
2019-03-08T04:39:03.667Z,14.43
2019-03-08T04:41:38.233Z,14.31
2019-03-08T04:44:11.851Z,14.12
2019-03-08T04:46:46.648Z,13.92
2019-03-08T04:49:21.490Z,13.87
2019-03-08T04:51:54.772Z,13.96
2019-03-08T04:54:29.731Z,13.88
2019-03-08T04:57:02.950Z,14.20
2019-03-08T04:59:36.225Z,14.48
2019-03-08T05:02:09.666Z,14.57
2019-03-08T05:04:43.128Z,14.29
2019-03-08T05:07:16.414Z,14.22
2019-03-08T05:09:49.679Z,14.28
2019-03-08T05:12:23.033Z,14.31
2019-03-08T05:14:58.263Z,14.29
2019-03-08T05:17:31.619Z,14.08
2019-03-08T05:20:05.554Z,14.10
2019-03-08T05:22:40.595Z,14.31
2019-03-08T05:25:15.158Z,14.38
2019-03-08T05:27:48.593Z,14.65
2019-03-08T05:30:22.253Z,14.95
2019-03-08T05:32:55.514Z,15.12
2019-03-08T05:35:29.039Z,15.08
2019-03-08T05:38:03.191Z,15.03
2019-03-08T05:40:36.777Z,14.77
2019-03-08T05:43:10.693Z,15.08
2019-03-08T05:45:45.369Z,14.62
2019-03-08T05:48:18.647Z,14.65
2019-03-08T05:50:51.945Z,14.52
2019-03-08T05:53:25.745Z,14.68
2019-03-08T05:55:59.634Z,14.85
2019-03-08T05:58:33.222Z,15.08
2019-03-08T06:01:06.400Z,14.83
2019-03-08T06:03:39.708Z,14.78
2019-03-08T06:06:13.035Z,14.77
2019-03-08T06:08:46.282Z,14.58
2019-03-08T06:11:19.617Z,14.35
2019-03-08T06:13:54.632Z,14.66
2019-03-08T06:16:28.946Z,14.61
2019-03-08T06:19:03.260Z,14.63
2019-03-08T06:21:36.561Z,14.52
2019-03-08T06:24:10.282Z,14.45
2019-03-08T06:26:43.686Z,14.53
2019-03-08T06:29:18.262Z,14.46
2019-03-08T06:31:51.758Z,14.42
2019-03-08T06:34:25.348Z,14.35
2019-03-08T06:36:58.780Z,14.60
2019-03-08T06:39:34.255Z,14.46
2019-03-08T06:42:09.802Z,14.33
2019-03-08T06:44:43.097Z,14.41
2019-03-08T06:47:16.587Z,14.47
2019-03-08T06:49:49.928Z,14.44
2019-03-08T06:52:23.628Z,14.19
2019-03-08T06:55:01.232Z,14.25
2019-03-08T06:57:34.503Z,14.50
2019-03-08T07:00:10.331Z,14.16
2019-03-08T07:02:44.192Z,14.09
2019-03-08T07:05:17.514Z,14.14
2019-03-08T07:07:52.007Z,14.31
2019-03-08T07:10:26.949Z,14.14
2019-03-08T07:13:03.537Z,14.31
2019-03-08T07:15:35.004Z,14.14
2019-03-08T07:18:12.574Z,14.10
2019-03-08T07:20:43.038Z,14.15
2019-03-08T07:23:16.321Z,14.03
2019-03-08T07:25:52.601Z,13.89
2019-03-08T07:28:24.182Z,13.84
2019-03-08T07:30:58.207Z,13.79
2019-03-08T07:33:31.527Z,13.68
2019-03-08T07:36:06.719Z,13.78
2019-03-08T07:38:40.231Z,13.78
2019-03-08T07:41:13.811Z,13.64
2019-03-08T07:43:47.200Z,13.73
2019-03-08T07:46:20.761Z,13.85
2019-03-08T07:48:54.316Z,13.79
2019-03-08T07:51:27.629Z,13.67
2019-03-08T07:54:01.316Z,13.71
2019-03-08T07:56:35.801Z,13.52
2019-03-08T07:59:09.578Z,13.52
2019-03-08T08:01:42.911Z,13.56
2019-03-08T08:04:19.341Z,13.43
2019-03-08T08:07:01.230Z,13.52
2019-03-08T08:09:53.761Z,13.54
2019-03-08T08:12:27.666Z,13.50
2019-03-08T08:15:01.145Z,13.48
2019-03-08T08:17:38.195Z,13.29
2019-03-08T08:20:16.342Z,13.32
2019-03-08T08:22:47.700Z,13.29
2019-03-08T08:25:21.223Z,13.18
2019-03-08T08:27:54.615Z,13.17
2019-03-08T08:30:29.490Z,13.07
2019-03-08T08:33:03.060Z,12.99
2019-03-08T08:35:36.320Z,12.97
2019-03-08T08:38:12.838Z,12.99
2019-03-08T08:40:46.395Z,12.84
2019-03-08T08:43:20.137Z,12.80
2019-03-08T08:45:55.107Z,12.66
2019-03-08T08:48:29.777Z,12.59
2019-03-08T08:51:03.153Z,12.55
2019-03-08T08:53:36.507Z,12.43
2019-03-08T08:56:10.594Z,12.38
2019-03-08T08:58:44.044Z,12.32
2019-03-08T09:01:17.398Z,12.19
2019-03-08T09:03:51.380Z,12.17
2019-03-08T09:06:26.718Z,12.14
2019-03-08T09:09:00.207Z,11.99
2019-03-08T09:11:43.800Z,11.83
2019-03-08T09:14:10.577Z,11.80
2019-03-08T09:16:45.992Z,11.74
2019-03-08T09:19:20.981Z,11.80
2019-03-08T09:21:54.659Z,11.64
2019-03-08T09:24:29.764Z,11.60
2019-03-08T09:27:03.403Z,11.60
2019-03-08T09:29:41.225Z,11.51
2019-03-08T09:32:16.586Z,11.34
2019-03-08T09:34:53.156Z,11.35
2019-03-08T09:37:29.827Z,11.33
2019-03-08T09:40:05.107Z,11.19
2019-03-08T09:42:38.891Z,11.10
2019-03-08T09:45:13.521Z,11.08
2019-03-08T09:47:48.056Z,11.06
2019-03-08T09:50:27.199Z,10.95
2019-03-08T09:53:02.673Z,10.97
2019-03-08T09:55:38.860Z,10.84
2019-03-08T09:58:13.848Z,10.79
2019-03-08T10:00:48.091Z,10.79
2019-03-08T10:03:21.701Z,10.71
2019-03-08T10:05:57.076Z,10.57
2019-03-08T10:08:32.803Z,10.70
2019-03-08T10:11:07.014Z,10.63
2019-03-08T10:13:41.493Z,10.61
2019-03-08T10:16:17.983Z,10.60
2019-03-08T10:18:54.113Z,10.47
2019-03-08T10:21:28.282Z,10.31
2019-03-08T10:24:04.217Z,10.24
2019-03-08T10:26:39.816Z,10.20
2019-03-08T10:29:15.106Z,10.17
2019-03-08T10:31:49.054Z,10.17
2019-03-08T10:34:25.541Z,10.18
2019-03-08T10:37:01.218Z,10.00
2019-03-08T10:39:38.105Z,10.02
2019-03-08T10:42:13.202Z,9.80
2019-03-08T10:44:50.125Z,9.76
2019-03-08T10:47:31.181Z,9.72
2019-03-08T10:50:10.336Z,9.61
2019-03-08T10:52:51.523Z,9.55
2019-03-08T10:55:25.874Z,9.35
2019-03-08T10:58:01.684Z,9.35
2019-03-08T11:00:38.788Z,9.09
2019-03-08T11:03:15.789Z,9.06
2019-03-08T11:05:51.021Z,9.00
2019-03-08T11:08:29.709Z,8.93
2019-03-08T11:11:06.576Z,8.86
2019-03-08T11:13:45.550Z,8.70
2019-03-08T11:16:25.052Z,8.97
2019-03-08T11:19:08.458Z,8.96
2019-03-08T11:21:37.091Z,8.88
2019-03-08T11:24:13.225Z,8.87
2019-03-08T11:26:48.018Z,8.70
2019-03-08T11:29:22.324Z,8.77
2019-03-08T11:31:56.567Z,8.47
2019-03-08T11:34:32.707Z,8.54
2019-03-08T11:37:07.727Z,8.71
2019-03-08T11:39:42.193Z,8.53
2019-03-08T11:42:16.599Z,8.40
2019-03-08T11:44:51.073Z,8.45
2019-03-08T11:47:25.427Z,8.55
2019-03-08T11:50:00.038Z,8.50
2019-03-08T11:52:34.755Z,8.62
2019-03-08T11:55:10.769Z,8.71
2019-03-08T11:57:45.152Z,8.60
2019-03-08T12:00:20.104Z,8.50
2019-03-08T12:02:54.879Z,8.44
2019-03-08T12:05:29.333Z,8.35
2019-03-08T12:08:05.130Z,8.42
2019-03-08T12:10:41.430Z,8.36
2019-03-08T12:13:16.721Z,8.25
2019-03-08T12:15:57.056Z,8.12
2019-03-08T12:18:34.279Z,8.07
2019-03-08T12:21:09.512Z,8.08
2019-03-08T12:23:49.159Z,8.02
2019-03-08T12:26:24.689Z,8.00
2019-03-08T12:28:59.235Z,7.99
2019-03-08T12:31:33.380Z,7.87
2019-03-08T12:34:07.757Z,7.82
2019-03-08T12:36:42.764Z,7.82
2019-03-08T12:39:18.360Z,7.80
2019-03-08T12:41:54.177Z,7.76
2019-03-08T12:44:28.859Z,7.72
2019-03-08T12:47:04.123Z,7.63
2019-03-08T12:49:38.575Z,7.62
2019-03-08T12:52:17.719Z,7.62
2019-03-08T12:54:52.226Z,7.59
2019-03-08T12:57:26.318Z,7.55
2019-03-08T13:00:00.519Z,7.56
2019-03-08T13:02:35.156Z,7.36
2019-03-08T13:05:10.111Z,7.28
2019-03-08T13:07:46.564Z,7.28
2019-03-08T13:10:22.311Z,7.29
2019-03-08T13:12:56.972Z,7.31
2019-03-08T13:15:31.492Z,7.26
2019-03-08T13:18:06.169Z,7.13
2019-03-08T13:20:40.326Z,7.11
2019-03-08T13:23:16.874Z,7.10
2019-03-08T13:25:51.143Z,7.12
2019-03-08T13:28:29.616Z,7.06
2019-03-08T13:31:04.288Z,7.00
2019-03-08T13:33:38.903Z,7.02
2019-03-08T13:36:13.153Z,6.90
2019-03-08T13:38:47.176Z,6.91
2019-03-08T13:41:21.204Z,6.74
2019-03-08T13:43:55.892Z,6.77
2019-03-08T13:46:29.915Z,6.66
2019-03-08T13:49:04.457Z,6.66
2019-03-08T13:51:39.024Z,6.61
2019-03-08T13:54:15.214Z,6.61
2019-03-08T13:56:49.325Z,6.55
2019-03-08T13:59:23.601Z,6.54
2019-03-08T14:01:58.056Z,6.54
2019-03-08T14:04:32.388Z,6.47
2019-03-08T14:07:06.165Z,6.44
2019-03-08T14:09:42.319Z,6.40
2019-03-08T14:12:16.419Z,6.34
2019-03-08T14:14:52.068Z,6.33
2019-03-08T14:17:29.649Z,6.29
2019-03-08T14:20:03.713Z,6.30
2019-03-08T14:22:39.019Z,6.18
2019-03-08T14:25:14.179Z,6.14
2019-03-08T14:27:49.702Z,6.16
2019-03-08T14:30:26.741Z,6.16
2019-03-08T14:33:01.535Z,6.07
2019-03-08T14:35:34.227Z,6.10
2019-03-08T14:38:09.696Z,6.02
2019-03-08T14:40:43.410Z,6.01
2019-03-08T14:43:17.881Z,6.06
2019-03-08T14:45:51.804Z,6.01
2019-03-08T14:48:29.463Z,5.99
2019-03-08T14:51:09.211Z,6.02
2019-03-08T14:53:41.956Z,6.03
2019-03-08T14:56:15.425Z,6.05
2019-03-08T14:58:48.715Z,6.08
2019-03-08T15:01:22.014Z,6.14
2019-03-08T15:03:56.597Z,6.12
2019-03-08T15:06:30.054Z,6.08
2019-03-08T15:09:03.659Z,6.05
2019-03-08T15:11:37.467Z,6.10
2019-03-08T15:14:12.523Z,6.06
2019-03-08T15:16:46.195Z,6.07
2019-03-08T15:19:21.122Z,6.08
2019-03-08T15:21:54.356Z,6.10
2019-03-08T15:24:27.820Z,6.12
2019-03-08T15:27:01.414Z,6.00
2019-03-08T15:29:36.845Z,6.06
2019-03-08T15:32:10.821Z,6.07
2019-03-08T15:34:44.288Z,6.03
2019-03-08T15:37:18.219Z,6.05
2019-03-08T15:39:51.774Z,6.00
2019-03-08T15:42:25.345Z,6.01
2019-03-08T15:45:01.813Z,5.99
2019-03-08T15:47:36.224Z,5.93
2019-03-08T15:50:09.859Z,5.98
2019-03-08T15:52:43.399Z,5.96
2019-03-08T15:55:18.223Z,5.91
2019-03-08T15:57:51.741Z,5.96
2019-03-08T16:00:25.666Z,5.95
2019-03-08T16:02:59.000Z,5.99
2019-03-08T16:05:32.317Z,5.96
2019-03-08T16:08:08.155Z,5.93
2019-03-08T16:10:41.681Z,5.91
2019-03-08T16:13:17.197Z,5.92
2019-03-08T16:15:50.553Z,5.94
2019-03-08T16:18:23.825Z,5.92
2019-03-08T16:20:57.035Z,5.96
2019-03-08T16:23:30.383Z,5.93
2019-03-08T16:26:03.683Z,5.90
2019-03-08T16:28:37.056Z,5.85
2019-03-08T16:31:10.156Z,5.89
2019-03-08T16:33:43.099Z,5.84
2019-03-08T16:36:16.040Z,5.91
2019-03-08T16:38:48.992Z,5.95
2019-03-08T16:41:22.053Z,5.91
2019-03-08T16:43:55.037Z,5.92
2019-03-08T16:46:29.247Z,5.91
2019-03-08T16:49:02.735Z,5.89
2019-03-08T16:51:36.640Z,5.92
2019-03-08T16:54:09.665Z,5.93
2019-03-08T16:56:44.706Z,5.90
2019-03-08T16:59:17.972Z,5.89
2019-03-08T17:01:51.270Z,5.83
2019-03-08T17:04:24.628Z,5.89
2019-03-08T17:06:57.953Z,5.83
2019-03-08T17:09:36.017Z,5.76
2019-03-08T17:12:07.683Z,5.82
2019-03-08T17:14:40.932Z,5.83
2019-03-08T17:17:17.386Z,5.87
2019-03-08T17:19:52.727Z,5.85
2019-03-08T17:22:26.036Z,5.84
2019-03-08T17:24:59.336Z,5.82
2019-03-08T17:27:32.851Z,5.73
2019-03-08T17:30:07.345Z,5.63
2019-03-08T17:32:40.664Z,5.61
2019-03-08T17:35:14.374Z,5.63
2019-03-08T17:37:48.719Z,5.65
2019-03-08T17:40:21.945Z,5.51
2019-03-08T17:42:57.069Z,5.56
2019-03-08T17:45:30.317Z,5.54
2019-03-08T17:48:03.642Z,5.63
2019-03-08T17:50:38.304Z,5.63
2019-03-08T17:53:14.193Z,5.55
2019-03-08T17:55:47.574Z,5.67
2019-03-08T17:58:21.171Z,5.61
2019-03-08T18:00:54.635Z,5.64
2019-03-08T18:03:27.905Z,5.62
2019-03-08T18:06:01.556Z,5.54
2019-03-08T18:08:36.694Z,5.50
2019-03-08T18:11:11.094Z,5.55
2019-03-08T18:13:44.593Z,5.56
2019-03-08T18:16:17.932Z,5.51
2019-03-08T18:18:51.235Z,5.51
2019-03-08T18:21:27.673Z,5.50
2019-03-08T18:24:01.047Z,5.45
2019-03-08T18:26:34.426Z,5.37
2019-03-08T18:29:11.856Z,5.33
2019-03-08T18:31:43.574Z,5.46
2019-03-08T18:34:16.949Z,5.46
2019-03-08T18:36:50.538Z,5.45
2019-03-08T18:39:23.957Z,5.38
2019-03-08T18:41:57.457Z,5.35
2019-03-08T18:44:31.181Z,5.34
2019-03-08T18:47:04.561Z,5.42
2019-03-08T18:49:38.710Z,5.46
2019-03-08T18:52:12.058Z,5.38
2019-03-08T18:54:45.538Z,5.33
2019-03-08T18:57:19.028Z,5.34
2019-03-08T18:59:52.506Z,5.28
2019-03-08T19:02:27.227Z,5.31
2019-03-08T19:05:00.492Z,5.27
2019-03-08T19:07:35.350Z,5.27
2019-03-08T19:10:10.859Z,5.32
2019-03-08T19:12:44.142Z,5.29
2019-03-08T19:15:17.723Z,5.29
2019-03-08T19:17:51.148Z,5.24
2019-03-08T19:20:26.213Z,5.24
2019-03-08T19:23:01.116Z,5.26
2019-03-08T19:25:34.499Z,5.19
2019-03-08T19:28:09.078Z,5.20
2019-03-08T19:30:42.562Z,5.12
2019-03-08T19:33:16.055Z,5.24
2019-03-08T19:35:49.342Z,5.18
2019-03-08T19:38:22.581Z,5.23
2019-03-08T19:40:56.069Z,5.19
2019-03-08T19:43:29.314Z,5.21
2019-03-08T19:46:02.658Z,5.19
2019-03-08T19:48:35.961Z,5.12
2019-03-08T19:51:09.611Z,5.14
2019-03-08T19:53:44.296Z,5.08
2019-03-08T19:56:17.650Z,5.13
2019-03-08T19:58:50.987Z,5.09
2019-03-08T20:01:24.217Z,5.14
2019-03-08T20:03:57.402Z,5.10
2019-03-08T20:06:30.759Z,5.21
2019-03-08T20:09:04.081Z,5.14
2019-03-08T20:11:37.615Z,5.14
2019-03-08T20:14:11.132Z,5.17
2019-03-08T20:16:44.466Z,5.19
2019-03-08T20:19:19.075Z,5.11
2019-03-08T20:21:52.557Z,5.21
2019-03-08T20:24:26.034Z,5.12
2019-03-08T20:26:59.337Z,5.11
2019-03-08T20:29:33.181Z,5.11
2019-03-08T20:32:06.726Z,5.14
2019-03-08T20:34:40.067Z,5.16
2019-03-08T20:37:13.375Z,5.16
2019-03-08T20:39:48.687Z,5.19
2019-03-08T20:42:21.989Z,5.17
2019-03-08T20:44:55.336Z,5.11
2019-03-08T20:47:28.638Z,5.11
2019-03-08T20:50:01.919Z,5.11
2019-03-08T20:52:35.180Z,5.04
2019-03-08T20:55:10.742Z,5.00
2019-03-08T20:57:43.987Z,5.01
2019-03-08T21:00:21.226Z,4.99
2019-03-08T21:02:54.740Z,4.90
2019-03-08T21:05:27.932Z,4.81
2019-03-08T21:08:01.292Z,4.90
2019-03-08T21:10:35.059Z,4.83
2019-03-08T21:13:08.355Z,4.79
2019-03-08T21:15:41.634Z,4.75
2019-03-08T21:18:14.979Z,4.72
2019-03-08T21:20:48.598Z,4.72
2019-03-08T21:23:21.854Z,4.62
2019-03-08T21:25:55.122Z,4.66
2019-03-08T21:28:28.385Z,4.69
2019-03-08T21:31:02.081Z,4.70
2019-03-08T21:33:35.523Z,4.67
2019-03-08T21:36:08.949Z,4.65
2019-03-08T21:38:42.227Z,4.68
2019-03-08T21:41:15.739Z,4.61
2019-03-08T21:43:49.106Z,4.58
2019-03-08T21:46:22.360Z,4.54
2019-03-08T21:48:55.613Z,4.58
2019-03-08T21:51:29.319Z,4.54
2019-03-08T21:54:02.654Z,4.49
2019-03-08T21:56:36.017Z,4.47
2019-03-08T21:59:09.333Z,4.43
2019-03-08T22:01:42.602Z,4.44
2019-03-08T22:04:15.882Z,4.47
2019-03-08T22:06:49.185Z,4.35
2019-03-08T22:09:22.477Z,4.40
2019-03-08T22:11:55.845Z,4.29
2019-03-08T22:14:29.186Z,4.31
2019-03-08T22:17:03.777Z,4.23
2019-03-08T22:19:37.167Z,4.22
2019-03-08T22:22:10.991Z,4.19
2019-03-08T22:24:44.399Z,4.17
2019-03-08T22:27:17.774Z,4.22
2019-03-08T22:29:51.044Z,4.20
2019-03-08T22:32:24.321Z,4.14
2019-03-08T22:34:57.689Z,4.11
2019-03-08T22:37:32.427Z,4.15
2019-03-08T22:40:05.901Z,4.22
2019-03-08T22:42:40.046Z,4.08
2019-03-08T22:45:14.527Z,4.13
2019-03-08T22:47:47.907Z,4.09
2019-03-08T22:50:22.786Z,4.20
2019-03-08T22:52:56.196Z,4.05
2019-03-08T22:55:29.528Z,4.15
2019-03-08T22:58:04.562Z,4.14
2019-03-08T23:00:54.994Z,3.98
2019-03-08T23:03:29.023Z,3.94
2019-03-08T23:06:02.273Z,4.06
2019-03-08T23:08:38.235Z,4.16
2019-03-08T23:11:11.883Z,4.18
2019-03-08T23:13:45.211Z,4.09
2019-03-08T23:16:18.742Z,4.08
2019-03-08T23:18:52.408Z,3.95
2019-03-08T23:21:27.047Z,4.11
2019-03-08T23:24:02.336Z,4.09
2019-03-08T23:26:35.886Z,4.04
2019-03-08T23:29:09.191Z,4.05
2019-03-08T23:31:42.653Z,4.05
2019-03-08T23:34:16.096Z,4.06
2019-03-08T23:36:49.686Z,4.03
2019-03-08T23:39:24.822Z,4.16
2019-03-08T23:41:59.370Z,4.24
2019-03-08T23:44:34.320Z,4.33
2019-03-08T23:47:08.624Z,4.31
2019-03-08T23:49:43.420Z,4.20
2019-03-08T23:52:17.123Z,4.35
2019-03-08T23:54:51.216Z,4.60
2019-03-08T23:57:34.000Z,4.73
